createdAt,value
2023-02-21T00:00:26.373Z,44.23
2023-02-21T00:03:08.967Z,44.33
2023-02-21T00:05:51.732Z,45.90
2023-02-21T00:08:37.625Z,46.40
2023-02-21T00:11:21.733Z,47.30
2023-02-21T00:14:05.002Z,46.33
2023-02-21T00:16:47.202Z,44.80
2023-02-21T00:19:29.354Z,44.80
2023-02-21T00:22:11.976Z,47.57
2023-02-21T00:24:57.083Z,45.47
2023-02-21T00:27:40.487Z,45.30
2023-02-21T00:30:24.581Z,46.80
2023-02-21T00:33:07.394Z,44.70
2023-02-21T00:35:50.078Z,45.90
2023-02-21T00:38:33.221Z,44.60
2023-02-21T00:41:19.354Z,43.47
2023-02-21T00:44:02.027Z,44.17
2023-02-21T00:46:44.884Z,44.20
2023-02-21T00:49:27.476Z,44.30
2023-02-21T00:52:10.562Z,46.23
2023-02-21T00:54:53.385Z,44.80
2023-02-21T00:57:40.120Z,43.57
2023-02-21T01:00:29.753Z,46.20
2023-02-21T01:03:12.760Z,44.90
2023-02-21T01:05:55.584Z,46.50
2023-02-21T01:08:38.080Z,45.50
2023-02-21T01:11:20.975Z,43.70
2023-02-21T01:14:07.845Z,44.53
2023-02-21T01:16:50.653Z,43.57
2023-02-21T01:19:33.510Z,44.03
2023-02-21T01:22:16.982Z,44.43
2023-02-21T01:24:59.639Z,44.57
2023-02-21T01:27:42.749Z,45.17
2023-02-21T01:30:28.900Z,44.07
2023-02-21T01:33:11.856Z,43.57
2023-02-21T01:35:54.328Z,44.13
2023-02-21T01:38:37.691Z,43.77
2023-02-21T01:41:20.696Z,42.47
2023-02-21T01:44:14.467Z,42.43
2023-02-21T01:47:01.465Z,42.73
2023-02-21T01:49:45.356Z,40.23
2023-02-21T01:52:28.323Z,42.97
2023-02-21T01:55:12.634Z,41.37
2023-02-21T01:57:56.295Z,42.30
2023-02-21T02:00:40.266Z,42.90
2023-02-21T02:03:28.228Z,40.67
2023-02-21T02:06:13.695Z,43.00
2023-02-21T02:08:57.240Z,44.37
2023-02-21T02:12:00.245Z,42.93
2023-02-21T02:14:54.534Z,45.37
2023-02-21T02:17:38.655Z,43.43
2023-02-21T02:20:51.377Z,42.30
2023-02-21T02:23:52.457Z,41.23
2023-02-21T02:26:53.876Z,44.10
2023-02-21T02:29:47.074Z,43.87
2023-02-21T02:32:40.588Z,43.47
2023-02-21T02:35:17.276Z,45.90
2023-02-21T02:37:55.158Z,44.50
2023-02-21T02:40:35.737Z,42.07
2023-02-21T02:43:13.761Z,44.57
2023-02-21T02:45:49.216Z,43.97
2023-02-21T02:48:25.974Z,45.27
2023-02-21T02:51:04.052Z,43.60
2023-02-21T02:53:36.296Z,44.53
2023-02-21T02:56:10.196Z,44.77
2023-02-21T02:58:45.087Z,44.63
2023-02-21T03:01:43.124Z,46.27
2023-02-21T03:04:35.619Z,43.50
2023-02-21T03:07:18.773Z,43.63
2023-02-21T03:09:57.810Z,43.30
2023-02-21T03:12:37.013Z,45.50
2023-02-21T03:15:15.258Z,44.57
2023-02-21T03:17:53.653Z,46.17
2023-02-21T03:20:25.324Z,45.30
2023-02-21T03:23:00.269Z,48.20
2023-02-21T03:25:33.256Z,46.87
2023-02-21T03:28:06.556Z,48.73
2023-02-21T03:30:45.364Z,46.07
2023-02-21T03:33:15.448Z,45.37
2023-02-21T03:35:47.552Z,48.17
2023-02-21T03:38:20.672Z,47.07
2023-02-21T03:40:52.560Z,46.40
2023-02-21T03:43:23.288Z,48.70
2023-02-21T03:46:00.090Z,46.90
2023-02-21T03:48:32.873Z,48.50
2023-02-21T03:51:26.003Z,47.37
2023-02-21T03:54:00.341Z,46.20
2023-02-21T03:56:42.277Z,47.90
2023-02-21T03:59:25.748Z,47.90
2023-02-21T04:01:56.601Z,47.20
2023-02-21T04:04:28.072Z,47.37
2023-02-21T04:07:09.438Z,46.20
2023-02-21T04:09:43.436Z,48.70
2023-02-21T04:12:16.767Z,47.50
2023-02-21T04:14:47.343Z,48.83
2023-02-21T04:17:18.610Z,46.80
2023-02-21T04:19:49.331Z,49.20
2023-02-21T04:22:20.137Z,46.20
2023-02-21T04:24:53.091Z,46.13
2023-02-21T04:27:27.376Z,48.00
2023-02-21T04:29:59.976Z,50.57
2023-02-21T04:32:31.867Z,47.13
2023-02-21T04:35:05.538Z,47.23
2023-02-21T04:37:37.354Z,48.70
2023-02-21T04:40:11.509Z,50.10
2023-02-21T04:42:41.849Z,47.77
2023-02-21T04:45:12.810Z,49.40
2023-02-21T04:47:43.344Z,47.77
2023-02-21T04:50:13.575Z,47.73
2023-02-21T04:52:43.895Z,48.33
2023-02-21T04:55:17.986Z,48.37
2023-02-21T04:57:48.012Z,50.17
2023-02-21T05:00:20.146Z,50.07
2023-02-21T05:02:50.268Z,47.80
2023-02-21T05:05:20.609Z,47.30
2023-02-21T05:07:50.593Z,50.53
2023-02-21T05:10:25.434Z,51.50
2023-02-21T05:12:57.040Z,49.60
2023-02-21T05:15:27.277Z,49.77
2023-02-21T05:17:57.254Z,50.30
2023-02-21T05:20:27.140Z,50.20
2023-02-21T05:23:02.065Z,48.43
2023-02-21T05:25:37.986Z,49.10
2023-02-21T05:28:08.203Z,52.27
2023-02-21T05:30:38.357Z,48.67
2023-02-21T05:33:08.642Z,46.90
2023-02-21T05:35:38.771Z,49.00
2023-02-21T05:38:08.969Z,49.77
2023-02-21T05:40:41.834Z,49.10
2023-02-21T05:43:11.949Z,50.50
2023-02-21T05:45:41.904Z,51.40
2023-02-21T05:48:12.061Z,51.23
2023-02-21T05:50:42.470Z,50.47
2023-02-21T05:53:12.435Z,50.60
2023-02-21T05:55:45.040Z,51.93
2023-02-21T05:58:14.965Z,51.70
2023-02-21T06:00:44.725Z,49.10
2023-02-21T06:03:14.377Z,47.23
2023-02-21T06:05:44.389Z,48.57
2023-02-21T06:08:14.410Z,51.70
2023-02-21T06:10:48.603Z,51.37
2023-02-21T06:13:18.403Z,48.60
2023-02-21T06:15:48.146Z,49.77
2023-02-21T06:18:19.043Z,47.07
2023-02-21T06:20:49.005Z,48.20
2023-02-21T06:23:19.053Z,49.43
2023-02-21T06:25:51.632Z,52.00
2023-02-21T06:28:21.325Z,50.20
2023-02-21T06:30:51.019Z,51.00
2023-02-21T06:33:20.663Z,50.93
2023-02-21T06:35:50.276Z,49.10
2023-02-21T06:38:19.976Z,48.93
2023-02-21T06:40:52.436Z,47.87
2023-02-21T06:43:28.704Z,48.90
2023-02-21T06:46:00.581Z,49.67
2023-02-21T06:48:31.417Z,48.63
2023-02-21T06:51:03.171Z,47.10
2023-02-21T06:53:34.795Z,49.07
2023-02-21T06:56:09.977Z,45.83
2023-02-21T06:58:51.937Z,47.40
2023-02-21T07:01:24.338Z,51.97
2023-02-21T07:03:59.046Z,47.60
2023-02-21T07:06:34.082Z,49.83
2023-02-21T07:17:20.661Z,50.20
2023-02-21T07:37:54.414Z,49.00
2023-02-21T07:40:24.410Z,51.50
2023-02-21T07:42:54.494Z,54.57
2023-02-21T07:45:25.630Z,48.87
2023-02-21T07:47:55.517Z,51.83
2023-02-21T07:50:25.261Z,55.83
2023-02-21T07:52:59.799Z,49.27
2023-02-21T07:55:29.477Z,53.50
2023-02-21T07:57:59.148Z,46.20
2023-02-21T08:00:29.240Z,47.70
2023-02-21T08:02:59.000Z,44.70
2023-02-21T08:05:28.986Z,43.20
2023-02-21T08:08:01.243Z,45.73
2023-02-21T08:10:31.067Z,43.60
2023-02-21T08:13:00.724Z,44.60
2023-02-21T08:15:30.503Z,43.87
2023-02-21T08:18:00.176Z,42.97
2023-02-21T08:20:29.809Z,42.03
2023-02-21T08:23:02.049Z,44.50
2023-02-21T08:25:31.708Z,44.17
2023-02-21T08:28:01.317Z,44.97
2023-02-21T08:30:31.017Z,45.77
2023-02-21T08:33:00.641Z,46.30
2023-02-21T08:35:31.049Z,44.80
2023-02-21T08:38:05.076Z,47.83
2023-02-21T08:40:35.796Z,44.53
2023-02-21T08:43:05.877Z,45.67
2023-02-21T08:45:35.859Z,47.37
2023-02-21T08:48:08.709Z,48.60
2023-02-21T08:50:38.433Z,49.10
2023-02-21T08:53:10.774Z,49.17
2023-02-21T08:55:40.441Z,47.70
2023-02-21T08:58:10.097Z,44.10
2023-02-21T09:00:39.785Z,47.27
2023-02-21T09:03:09.500Z,48.07
2023-02-21T09:05:39.161Z,48.77
2023-02-21T09:08:21.148Z,47.90
2023-02-21T09:11:05.715Z,50.70
2023-02-21T09:13:42.436Z,46.70
2023-02-21T09:16:16.609Z,47.83
2023-02-21T11:36:43.137Z,21.70
2023-02-21T11:40:01.747Z,21.30
2023-02-21T11:43:08.258Z,20.00
2023-02-21T11:46:03.664Z,20.80
2023-02-21T11:49:49.845Z,22.37
2023-02-21T11:55:31.823Z,21.23
2023-02-21T12:10:58.528Z,21.07
2023-02-21T12:22:21.485Z,23.87
2023-02-21T12:28:46.090Z,24.63
2023-02-21T12:31:31.484Z,25.47
2023-02-21T13:20:50.768Z,28.73
2023-02-21T13:24:31.138Z,28.70
2023-02-21T13:28:19.890Z,29.10
2023-02-21T13:31:06.632Z,28.37
2023-02-21T13:34:07.540Z,28.40
2023-02-21T13:37:50.123Z,27.57
2023-02-21T13:41:18.824Z,28.40
2023-02-21T13:49:03.316Z,28.17
2023-02-21T13:53:05.382Z,28.33
2023-02-21T13:57:01.917Z,28.13
2023-02-21T14:00:24.352Z,29.07
2023-02-21T14:06:00.099Z,28.67
2023-02-21T14:08:27.616Z,29.23
2023-02-21T14:11:38.830Z,28.77
2023-02-21T14:14:49.962Z,28.60
2023-02-21T14:17:32.273Z,27.30
2023-02-21T14:20:09.368Z,26.17
2023-02-21T14:22:42.204Z,27.10
2023-02-21T14:25:21.669Z,27.73
2023-02-21T14:27:53.488Z,26.50
2023-02-21T14:30:32.096Z,26.40
2023-02-21T14:33:20.850Z,26.47
2023-02-21T14:36:01.040Z,111.90
2023-02-21T14:38:39.283Z,32.23
2023-02-21T14:41:27.044Z,26.50
2023-02-21T14:44:09.869Z,27.20
2023-02-21T14:46:55.010Z,25.50
2023-02-21T14:49:43.528Z,28.40
2023-02-21T14:52:53.239Z,25.47
2023-02-21T14:56:03.800Z,22.73
2023-02-21T14:59:07.008Z,21.77
2023-02-21T15:01:57.609Z,22.10
2023-02-21T15:04:37.748Z,23.20
2023-02-21T15:07:19.008Z,20.80
2023-02-21T15:10:07.196Z,22.00
2023-02-21T15:12:44.673Z,21.73
2023-02-21T15:15:20.263Z,20.93
2023-02-21T15:18:01.124Z,20.27
2023-02-21T15:20:33.840Z,20.77
2023-02-21T15:23:08.128Z,20.63
2023-02-21T15:25:38.195Z,20.20
2023-02-21T15:28:23.058Z,20.33
2023-02-21T15:31:05.285Z,22.47
2023-02-21T15:33:37.440Z,24.40
2023-02-21T15:36:09.912Z,22.83
2023-02-21T15:38:44.956Z,23.07
2023-02-21T15:41:23.408Z,24.53
2023-02-21T15:44:00.837Z,22.90
2023-02-21T15:46:34.632Z,22.20
2023-02-21T15:49:07.400Z,21.43
2023-02-21T15:51:40.949Z,23.87
2023-02-21T15:54:12.287Z,24.63
2023-02-21T15:56:42.595Z,27.13
2023-02-21T15:59:21.375Z,26.10
2023-02-21T16:02:19.945Z,24.50
2023-02-21T16:04:51.289Z,24.50
2023-02-21T16:07:24.932Z,26.00
2023-02-21T16:10:03.390Z,25.13
2023-02-21T16:12:38.140Z,25.50
2023-02-21T16:15:23.416Z,25.80
2023-02-21T16:17:56.986Z,30.03
2023-02-21T16:20:31.262Z,30.60
2023-02-21T16:23:26.020Z,27.83
2023-02-21T16:26:01.514Z,27.47
2023-02-21T16:28:31.824Z,31.57
2023-02-21T16:31:06.359Z,31.27
2023-02-21T16:33:37.976Z,29.80
2023-02-21T16:36:10.728Z,32.67
2023-02-21T16:38:40.457Z,29.70
2023-02-21T16:41:16.202Z,30.00
2023-02-21T16:43:46.155Z,29.53
2023-02-21T16:46:28.416Z,32.50
2023-02-21T16:49:00.013Z,32.50
2023-02-21T16:51:34.787Z,29.87
2023-02-21T16:54:05.218Z,27.80
2023-02-21T16:56:35.318Z,27.83
2023-02-21T16:59:05.881Z,28.90
2023-02-21T17:01:39.200Z,28.43
2023-02-21T17:04:09.220Z,28.93
2023-02-21T17:06:38.928Z,28.20
2023-02-21T17:09:08.607Z,27.10
2023-02-21T17:11:38.272Z,27.77
2023-02-21T17:14:07.910Z,26.57
2023-02-21T17:16:40.264Z,26.60
2023-02-21T17:19:12.557Z,26.40
2023-02-21T17:21:42.367Z,27.10
2023-02-21T17:24:14.086Z,25.77
2023-02-21T17:26:44.145Z,25.40
2023-02-21T17:29:14.460Z,25.77
2023-02-21T17:31:46.786Z,23.03
2023-02-21T17:34:16.617Z,26.43
2023-02-21T17:36:46.333Z,25.50
2023-02-21T18:24:13.266Z,24.77
2023-02-21T18:26:42.955Z,25.07
2023-02-21T18:29:12.655Z,25.77
2023-02-21T18:31:47.587Z,23.87
2023-02-21T18:34:21.267Z,24.73
2023-02-21T18:36:56.228Z,22.90
2023-02-21T23:19:45.099Z,31.53
2023-02-21T23:22:17.403Z,33.17
2023-02-21T23:24:47.206Z,32.10
2023-02-21T23:27:16.875Z,27.50
2023-02-21T23:29:47.890Z,29.23
2023-02-21T23:32:17.565Z,29.80
2023-02-21T23:34:50.836Z,29.50
2023-02-21T23:37:23.110Z,28.60
2023-02-21T23:39:52.716Z,29.57
2023-02-21T23:42:23.815Z,28.73
2023-02-21T23:44:54.505Z,29.60
2023-02-21T23:47:24.225Z,30.20
2023-02-21T23:49:58.109Z,30.37
2023-02-21T23:52:30.487Z,30.90
2023-02-21T23:55:00.444Z,29.67
2023-02-21T23:57:31.436Z,30.10
